Park Heights, Pennsylvania
Current Conditions -  °F | °C
As of 1:53 PM on Friday 21 Nov 2014 (Local Time) from KTHV Reporting Station
Clear Clear  
Wind Chill: -2°   Ceiling: Unl
Heat Index:   Visibility: 10mi
Dew Point: -14°   Wind: 7mph
Humidity: 30%   Direction: NA
Pressure: 30.41"   Gusts: NA
Location:  39.7863°N, 76.988°W
Report Text: KTHV 211853Z AUTO VRB06KT 10SM CLR 02/M14 A3041 RMK AO2 SLP304 T00171144
Loading
Personal Weather Stations






























Interactive Weather Map New forecast layout! Learn more

10-Day Weather Forecast

Advertisements
Track Severe Weather on mobile